Time;durP1;ratioP1;P1;durP2;ratioP2;P2;SDS_P1;SDS_P2;PMS_P1;PMS_P2;Temp;Humidity;BMP_temperature;BMP_pressure;BME280_temperature;BME280_humidity;BME280_pressure;Samples;Min_cycle;Max_cycle;Signal;HPM_P1;HPM_P2
2023/07/09 00:01:53;;;;;;;6.73;5.20;;;20.60;86.30;;;;;;5029523;28;20445;-70
2023/07/09 00:04:21;;;;;;;9.17;5.10;;;20.60;86.20;;;;;;5019896;28;20448;-69
2023/07/09 00:06:50;;;;;;;7.30;4.80;;;20.60;84.80;;;;;;5026476;28;20457;-69
2023/07/09 00:09:20;;;;;;;5.93;5.17;;;20.70;84.30;;;;;;5029364;28;20437;-69
2023/07/09 00:11:49;;;;;;;5.53;5.00;;;20.70;84.90;;;;;;5029085;28;20924;-71
2023/07/09 00:14:17;;;;;;;7.23;4.50;;;20.70;84.80;;;;;;5029549;28;20851;-69
2023/07/09 00:16:48;;;;;;;6.03;5.43;;;20.70;84.40;;;;;;5011748;28;20458;-69
2023/07/09 00:19:20;;;;;;;5.60;4.73;;;20.60;84.40;;;;;;5014677;28;21265;-68
2023/07/09 00:21:52;;;;;;;5.90;5.40;;;20.50;85.20;;;;;;5025540;28;20445;-68
2023/07/09 00:24:21;;;;;;;6.20;5.17;;;20.40;90.20;;;;;;5022567;28;20549;-69
2023/07/09 00:26:50;;;;;;;7.20;5.10;;;20.30;90.10;;;;;;5028388;28;21014;-67
2023/07/09 00:29:18;;;;;;;5.43;4.93;;;20.30;89.10;;;;;;5029328;28;20459;-68
2023/07/09 00:31:46;;;;;;;6.87;4.97;;;20.20;90.70;;;;;;5029054;28;21012;-67
2023/07/09 00:34:21;;;;;;;9.40;6.17;;;20.10;90.60;;;;;;5029117;28;20507;-69
2023/07/09 00:36:50;;;;;;;7.67;6.37;;;19.90;91.10;;;;;;5028973;28;20447;-67
2023/07/09 00:39:20;;;;;;;6.77;6.17;;;19.80;92.10;;;;;;5014112;28;20537;-69
2023/07/09 00:41:49;;;;;;;8.17;6.30;;;19.80;91.80;;;;;;5008836;28;20972;-68
2023/07/09 00:44:28;;;;;;;9.20;5.97;;;19.80;91.50;;;;;;5009255;28;20476;-70
2023/07/09 00:47:23;;;;;;;6.20;5.40;;;19.90;91.30;;;;;;5008801;28;20476;-67
2023/07/09 00:50:04;;;;;;;5.37;4.87;;;20.00;91.10;;;;;;5008886;28;20464;-70
2023/07/09 00:52:38;;;;;;;6.47;5.37;;;19.90;90.90;;;;;;5008812;28;20446;-71
2023/07/09 00:55:11;;;;;;;6.10;5.50;;;19.90;90.90;;;;;;5024217;28;20488;-69
2023/07/09 00:57:41;;;;;;;6.03;5.23;;;19.80;91.30;;;;;;5032531;28;20495;-69
2023/07/09 01:00:14;;;;;;;8.20;5.43;;;19.80;91.30;;;;;;5028710;28;20536;-69
2023/07/09 01:02:48;;;;;;;5.53;5.00;;;19.80;91.20;;;;;;5029099;28;20445;-71
2023/07/09 01:05:19;;;;;;;6.63;6.00;;;19.80;91.60;;;;;;5028980;28;21438;-69
2023/07/09 01:07:49;;;;;;;8.63;6.47;;;19.70;92.40;;;;;;5028607;28;20524;-69
2023/07/09 01:10:18;;;;;;;7.33;5.33;;;19.60;93.20;;;;;;5014251;28;20889;-67
2023/07/09 01:12:50;;;;;;;7.70;5.60;;;19.50;94.00;;;;;;5030994;28;20866;-68
2023/07/09 01:15:18;;;;;;;5.30;4.80;;;19.40;94.20;;;;;;5029655;28;20924;-69
2023/07/09 01:17:46;;;;;;;6.40;5.30;;;19.30;94.60;;;;;;5029608;28;20445;-67
2023/07/09 01:20:21;;;;;;;5.77;5.27;;;19.30;95.10;;;;;;5029684;28;20961;-68
2023/07/09 01:22:54;;;;;;;5.17;4.67;;;19.30;94.30;;;;;;5029356;28;20432;-69
2023/07/09 01:25:23;;;;;;;6.70;6.07;;;19.30;96.10;;;;;;5020303;28;20492;-68
2023/07/09 01:27:52;;;;;;;6.70;5.50;;;19.30;95.80;;;;;;5011753;28;20473;-69
2023/07/09 01:30:23;;;;;;;6.53;5.93;;;19.10;96.20;;;;;;5011494;28;20537;-69
2023/07/09 01:32:51;;;;;;;5.07;4.60;;;19.00;96.10;;;;;;5010876;28;20453;-67
2023/07/09 01:35:21;;;;;;;5.60;5.10;;;19.00;96.70;;;;;;5010754;28;20564;-68
2023/07/09 01:37:51;;;;;;;6.80;6.07;;;18.90;96.80;;;;;;5011364;28;20484;-67
2023/07/09 01:40:21;;;;;;;7.03;5.17;;;19.00;97.50;;;;;;5012142;28;21026;-68
2023/07/09 01:43:02;;;;;;;6.67;6.03;;;19.00;97.90;;;;;;5010984;28;20481;-68
2023/07/09 01:45:32;;;;;;;7.20;5.07;;;19.00;98.10;;;;;;5010744;28;20516;-67
2023/07/09 01:48:02;;;;;;;6.03;5.10;;;18.90;97.60;;;;;;5011906;28;20881;-69
2023/07/09 01:50:30;;;;;;;6.13;5.63;;;18.90;97.60;;;;;;5030088;28;20460;-67
2023/07/09 01:53:00;;;;;;;6.10;5.50;;;19.00;97.50;;;;;;5029029;28;20464;-70
2023/07/09 01:55:29;;;;;;;6.27;5.30;;;19.00;97.20;;;;;;5029570;28;20487;-68
2023/07/09 01:57:57;;;;;;;5.67;4.97;;;19.00;97.20;;;;;;5030251;28;20469;-68
2023/07/09 02:00:25;;;;;;;6.30;5.10;;;19.00;98.80;;;;;;5030307;28;20479;-69
2023/07/09 02:02:54;;;;;;;5.63;5.07;;;18.90;98.50;;;;;;5029492;28;20449;-68
2023/07/09 02:05:22;;;;;;;8.50;6.33;;;19.00;98.00;;;;;;5029926;28;20461;-67
2023/07/09 02:07:51;;;;;;;6.17;5.00;;;19.10;97.80;;;;;;5029417;28;20476;-68
2023/07/09 02:10:20;;;;;;;8.23;5.20;;;19.10;97.80;;;;;;5030269;28;20472;-69
2023/07/09 02:12:48;;;;;;;5.13;4.73;;;19.00;98.20;;;;;;5029756;28;21020;-67
2023/07/09 02:15:17;;;;;;;6.53;4.80;;;18.90;99.80;;;;;;5030423;28;20987;-70
2023/07/09 02:17:45;;;;;;;5.10;4.60;;;18.90;99.90;;;;;;5030502;28;20555;-69
2023/07/09 02:20:15;;;;;;;6.40;4.63;;;18.80;99.90;;;;;;5030159;28;20440;-69
2023/07/09 02:22:43;;;;;;;6.37;5.00;;;18.80;99.90;;;;;;5028138;28;20540;-68
2023/07/09 02:25:12;;;;;;;8.50;5.30;;;18.80;99.70;;;;;;5029741;28;20456;-71
2023/07/09 02:27:41;;;;;;;5.70;5.07;;;18.70;99.90;;;;;;5030004;28;20441;-69
2023/07/09 02:30:11;;;;;;;6.27;5.00;;;18.60;99.90;;;;;;5029739;28;20445;-69
2023/07/09 02:32:39;;;;;;;6.73;5.30;;;18.60;99.90;;;;;;5029664;28;20958;-70
2023/07/09 02:35:08;;;;;;;5.50;5.00;;;18.60;99.90;;;;;;5029831;28;20567;-68
2023/07/09 02:37:36;;;;;;;7.57;5.07;;;18.60;99.90;;;;;;5028302;28;20449;-66
2023/07/09 02:40:06;;;;;;;5.87;5.27;;;18.60;99.90;;;;;;5030174;28;20441;-69
2023/07/09 02:42:34;;;;;;;5.70;4.80;;;18.50;99.90;;;;;;5029737;28;20540;-68
2023/07/09 02:45:05;;;;;;;5.70;5.00;;;18.60;99.90;;;;;;5030033;28;20460;-70
2023/07/09 02:47:33;;;;;;;9.07;5.13;;;18.60;99.90;;;;;;5029736;28;20957;-69
2023/07/09 02:50:01;;;;;;;5.83;5.30;;;18.50;99.90;;;;;;5029537;28;20449;-70
2023/07/09 02:52:29;;;;;;;5.00;4.50;;;18.40;99.90;;;;;;5029148;28;20441;-68
2023/07/09 02:54:57;;;;;;;8.60;5.30;;;18.40;99.90;;;;;;5027883;28;20484;-69
2023/07/09 02:57:25;;;;;;;5.60;4.97;;;18.40;99.90;;;;;;5029606;28;20527;-69
2023/07/09 02:59:53;;;;;;;7.63;6.10;;;18.30;99.90;;;;;;5029626;28;20531;-69
2023/07/09 03:02:22;;;;;;;7.60;5.83;;;18.30;99.90;;;;;;5029902;28;20467;-69
2023/07/09 03:04:50;;;;;;;5.73;5.20;;;18.30;99.90;;;;;;5035718;28;20522;-71
2023/07/09 03:07:18;;;;;;;7.27;5.30;;;18.20;99.90;;;;;;5036344;28;20492;-68
2023/07/09 03:09:46;;;;;;;5.50;4.87;;;18.20;99.90;;;;;;5024079;28;20450;-70
2023/07/09 03:12:14;;;;;;;5.17;4.67;;;18.10;99.90;;;;;;5016391;28;20445;-70
2023/07/09 03:14:42;;;;;;;7.57;4.90;;;18.10;99.90;;;;;;5015868;28;20519;-70
2023/07/09 03:17:10;;;;;;;5.40;4.90;;;18.00;99.90;;;;;;5016282;28;20453;-68
2023/07/09 03:19:39;;;;;;;7.50;4.70;;;18.00;99.90;;;;;;5016538;28;20477;-69
2023/07/09 03:22:07;;;;;;;5.73;4.33;;;18.00;99.90;;;;;;5016351;28;20446;-69
2023/07/09 03:24:35;;;;;;;4.43;3.93;;;18.00;99.90;;;;;;5022845;28;20464;-69
2023/07/09 03:27:04;;;;;;;5.77;5.00;;;17.90;99.90;;;;;;5035993;28;20486;-69
2023/07/09 03:29:32;;;;;;;6.20;4.97;;;18.00;99.90;;;;;;5035969;28;20553;-68
2023/07/09 03:32:00;;;;;;;5.00;4.10;;;18.10;99.90;;;;;;5035989;28;20452;-69
2023/07/09 03:34:28;;;;;;;5.50;4.80;;;18.10;99.90;;;;;;5036315;28;20456;-68
2023/07/09 03:36:57;;;;;;;6.13;4.57;;;18.10;99.90;;;;;;5036344;28;20475;-69
2023/07/09 03:39:25;;;;;;;5.07;4.43;;;18.00;99.90;;;;;;5025902;28;20640;-67
2023/07/09 03:41:53;;;;;;;5.23;4.33;;;18.00;99.90;;;;;;5016479;28;20473;-68
2023/07/09 03:44:21;;;;;;;5.03;4.60;;;18.00;99.90;;;;;;5015543;28;20448;-68
2023/07/09 03:46:49;;;;;;;5.40;4.90;;;18.10;99.90;;;;;;5016604;28;20786;-68
2023/07/09 03:49:17;;;;;;;5.93;4.13;;;18.10;99.90;;;;;;5016219;28;20541;-68
2023/07/09 03:51:45;;;;;;;7.00;5.03;;;18.10;99.90;;;;;;5023255;28;20484;-68
2023/07/09 03:54:14;;;;;;;6.63;5.00;;;18.00;99.90;;;;;;5034852;28;20452;-67
2023/07/09 03:56:42;;;;;;;5.57;5.00;;;18.00;99.90;;;;;;5036197;28;20563;-69
2023/07/09 03:59:10;;;;;;;5.57;5.07;;;17.90;99.90;;;;;;5035890;28;20886;-68
2023/07/09 04:01:38;;;;;;;7.40;4.77;;;18.10;99.90;;;;;;5035417;28;20448;-68
2023/07/09 04:04:06;;;;;;;4.80;4.37;;;18.10;99.90;;;;;;5033551;28;20452;-66
2023/07/09 04:06:34;;;;;;;6.57;4.43;;;18.10;99.90;;;;;;5035127;28;20441;-67
2023/07/09 04:09:02;;;;;;;5.10;4.60;;;18.10;99.90;;;;;;5035646;28;20949;-68
2023/07/09 04:11:31;;;;;;;5.53;4.80;;;18.10;99.90;;;;;;5035259;28;20436;-68
2023/07/09 04:13:59;;;;;;;5.67;4.60;;;18.20;99.90;;;;;;5034900;28;20452;-66
2023/07/09 04:16:27;;;;;;;5.20;4.70;;;18.20;99.90;;;;;;5031747;28;20484;-68
2023/07/09 04:18:55;;;;;;;4.30;4.00;;;18.20;99.90;;;;;;5032306;28;20928;-67
2023/07/09 04:21:23;;;;;;;6.80;4.60;;;18.30;99.90;;;;;;5012852;28;20477;-69
2023/07/09 04:23:51;;;;;;;5.83;5.13;;;18.40;99.90;;;;;;5011996;28;20445;-70
2023/07/09 04:26:19;;;;;;;6.20;4.93;;;18.50;99.90;;;;;;5012222;28;20520;-67
2023/07/09 04:28:48;;;;;;;5.03;4.33;;;18.60;99.90;;;;;;5012648;28;20448;-69
2023/07/09 04:31:16;;;;;;;5.63;4.27;;;18.60;99.90;;;;;;5012575;28;20460;-68
2023/07/09 04:33:45;;;;;;;6.17;5.37;;;18.60;99.90;;;;;;5011889;28;20441;-68
2023/07/09 04:36:13;;;;;;;9.13;5.80;;;18.60;99.90;;;;;;5012274;28;20912;-70
2023/07/09 04:38:41;;;;;;;5.00;4.50;;;18.70;99.90;;;;;;5030239;28;20680;-69
2023/07/09 04:41:09;;;;;;;5.37;4.63;;;18.80;99.90;;;;;;5032014;28;20536;-68
2023/07/09 04:43:36;;;;;;;7.60;5.63;;;18.80;99.90;;;;;;5047594;28;20475;-70
2023/07/09 04:46:06;;;;;;;6.97;5.40;;;18.80;99.90;;;;;;5051452;28;20456;-67
2023/07/09 04:48:35;;;;;;;5.83;4.67;;;18.90;99.90;;;;;;5051868;28;20547;-69
2023/07/09 04:51:02;;;;;;;5.93;5.33;;;18.90;99.90;;;;;;5051467;28;20947;-70
2023/07/09 04:53:30;;;;;;;7.00;4.63;;;19.10;99.90;;;;;;5051584;28;20454;-68
2023/07/09 04:55:58;;;;;;;5.80;5.27;;;19.10;99.90;;;;;;5034705;28;20542;-67
2023/07/09 04:58:26;;;;;;;4.90;4.50;;;19.30;99.90;;;;;;5031641;28;20441;-68
2023/07/09 05:00:58;;;;;;;6.60;5.07;;;19.30;99.90;;;;;;5031714;28;20506;-68
2023/07/09 05:03:27;;;;;;;6.40;5.33;;;19.30;99.90;;;;;;5031091;28;20453;-69
2023/07/09 05:05:55;;;;;;;8.17;5.50;;;19.40;99.90;;;;;;5031560;28;20495;-70
2023/07/09 05:08:24;;;;;;;5.40;4.90;;;19.50;99.90;;;;;;5031413;28;20437;-69
2023/07/09 05:10:53;;;;;;;6.97;5.07;;;19.50;99.90;;;;;;5031511;28;20437;-69
2023/07/09 05:13:21;;;;;;;5.80;5.30;;;19.60;99.90;;;;;;5029285;28;20528;-70
2023/07/09 05:15:50;;;;;;;4.50;4.10;;;19.70;99.90;;;;;;5031124;28;20547;-69
2023/07/09 05:18:19;;;;;;;4.83;4.43;;;19.90;99.90;;;;;;5031067;28;21097;-70
2023/07/09 05:20:48;;;;;;;5.70;5.20;;;20.00;99.90;;;;;;5031450;28;20453;-70
2023/07/09 05:23:17;;;;;;;5.43;4.90;;;20.10;99.40;;;;;;5030981;28;20448;-68
2023/07/09 05:25:45;;;;;;;8.97;5.07;;;20.20;99.30;;;;;;5030522;28;20480;-68
2023/07/09 05:28:13;;;;;;;6.00;4.40;;;20.40;99.70;;;;;;5030382;28;20544;-70
2023/07/09 05:30:42;;;;;;;6.23;4.93;;;20.50;99.90;;;;;;5029253;28;20453;-69
2023/07/09 05:33:10;;;;;;;5.70;4.90;;;20.50;99.60;;;;;;5030892;28;20492;-71
2023/07/09 05:35:38;;;;;;;6.50;5.70;;;20.60;99.60;;;;;;5030983;28;20461;-68
2023/07/09 05:38:08;;;;;;;5.43;4.93;;;20.60;99.60;;;;;;5031187;28;21164;-69
2023/07/09 05:40:36;;;;;;;7.50;6.03;;;20.60;99.40;;;;;;5031123;28;20527;-67
2023/07/09 05:43:04;;;;;;;7.10;6.00;;;20.70;99.80;;;;;;5030384;28;20441;-67
2023/07/09 05:45:32;;;;;;;5.37;4.87;;;20.80;98.70;;;;;;5030809;28;20469;-68
2023/07/09 05:48:00;;;;;;;6.63;5.93;;;20.90;97.80;;;;;;5019827;28;20834;-68
2023/07/09 05:50:29;;;;;;;7.77;5.50;;;21.00;99.00;;;;;;5010762;28;20883;-69
2023/07/09 05:52:57;;;;;;;7.77;4.97;;;21.10;98.30;;;;;;5026974;28;20448;-71
2023/07/09 05:55:26;;;;;;;8.13;6.07;;;21.20;98.10;;;;;;5030071;28;20467;-70
2023/07/09 05:57:55;;;;;;;5.73;5.23;;;21.30;98.70;;;;;;5030085;28;20538;-70
2023/07/09 06:00:23;;;;;;;6.10;4.77;;;21.40;98.50;;;;;;5030529;28;20479;-69
2023/07/09 06:02:52;;;;;;;6.33;5.67;;;21.50;98.40;;;;;;5030090;28;20480;-72
2023/07/09 06:05:20;;;;;;;7.67;5.63;;;21.50;97.30;;;;;;5030111;28;20461;-71
2023/07/09 06:07:48;;;;;;;8.20;5.60;;;21.70;96.60;;;;;;5017797;28;20446;-70
2023/07/09 06:10:16;;;;;;;6.57;5.77;;;21.80;95.60;;;;;;5010131;28;20438;-69
2023/07/09 06:12:46;;;;;;;6.53;5.63;;;22.00;95.70;;;;;;5009781;28;20442;-69
2023/07/09 06:15:14;;;;;;;6.90;5.70;;;22.10;94.90;;;;;;5010272;28;20853;-69
2023/07/09 06:17:41;;;;;;;6.57;5.90;;;22.30;94.50;;;;;;5010269;28;20513;-70
2023/07/09 06:20:11;;;;;;;6.70;5.87;;;22.50;93.30;;;;;;5010378;28;20470;-69
2023/07/09 06:22:39;;;;;;;6.47;5.83;;;22.70;92.80;;;;;;5009462;28;20948;-69
2023/07/09 06:25:07;;;;;;;6.37;5.77;;;22.80;92.60;;;;;;5021304;28;20465;-69
2023/07/09 06:27:35;;;;;;;7.30;5.87;;;22.90;92.00;;;;;;5029766;28;20971;-69
2023/07/09 06:30:05;;;;;;;7.20;6.10;;;23.10;91.40;;;;;;5030015;28;20448;-67
2023/07/09 06:32:33;;;;;;;6.87;5.83;;;23.30;91.80;;;;;;5029631;28;20449;-69
2023/07/09 06:35:01;;;;;;;10.77;6.20;;;23.40;92.30;;;;;;5030003;28;20461;-70
2023/07/09 06:37:29;;;;;;;7.43;6.20;;;23.50;90.60;;;;;;5029718;28;20480;-68
2023/07/09 06:39:57;;;;;;;8.87;5.93;;;23.60;90.40;;;;;;5029978;28;20494;-70
2023/07/09 06:42:25;;;;;;;6.93;6.33;;;23.70;89.80;;;;;;5018811;28;20464;-67
2023/07/09 06:44:53;;;;;;;6.93;6.33;;;23.80;90.80;;;;;;5009983;28;20550;-68
2023/07/09 06:47:22;;;;;;;5.60;5.00;;;23.80;88.70;;;;;;5010558;28;20456;-69
2023/07/09 06:49:50;;;;;;;6.70;6.00;;;24.00;88.30;;;;;;5009926;28;20477;-69
2023/07/09 06:52:18;;;;;;;7.07;6.23;;;24.10;87.20;;;;;;5009865;28;20438;-69
2023/07/09 06:54:46;;;;;;;6.30;5.70;;;24.40;85.20;;;;;;5009473;28;20466;-67
2023/07/09 06:57:14;;;;;;;6.07;5.47;;;24.40;86.40;;;;;;5010193;28;20481;-69
2023/07/09 06:59:42;;;;;;;7.67;6.30;;;24.50;84.40;;;;;;5012176;28;20996;-70
2023/07/09 07:02:10;;;;;;;7.00;6.30;;;24.50;84.00;;;;;;5010262;28;20500;-69
2023/07/09 07:04:40;;;;;;;7.60;6.13;;;24.60;84.10;;;;;;5009810;28;20552;-67
2023/07/09 07:07:08;;;;;;;6.10;5.50;;;24.70;83.70;;;;;;5010120;28;20430;-69
2023/07/09 07:09:36;;;;;;;7.60;6.90;;;24.90;82.90;;;;;;5010022;28;20441;-70
2023/07/09 07:12:05;;;;;;;7.60;5.87;;;25.00;82.20;;;;;;5009889;28;20441;-69
2023/07/09 07:14:33;;;;;;;6.60;6.00;;;25.20;80.70;;;;;;5009470;28;20508;-71
2023/07/09 07:17:02;;;;;;;6.40;5.80;;;25.30;79.90;;;;;;5010068;28;20496;-71
2023/07/09 07:19:30;;;;;;;7.07;6.47;;;25.50;78.40;;;;;;5010066;28;20446;-68
2023/07/09 07:21:59;;;;;;;6.40;5.80;;;25.60;77.10;;;;;;5009885;28;20474;-69
2023/07/09 07:24:27;;;;;;;6.73;5.97;;;25.70;77.40;;;;;;5009491;28;20505;-70
2023/07/09 07:26:55;;;;;;;7.30;6.40;;;25.90;74.80;;;;;;5009921;28;20446;-70
2023/07/09 07:29:23;;;;;;;7.57;6.77;;;25.90;74.60;;;;;;5009580;28;20441;-71
2023/07/09 07:31:53;;;;;;;6.90;6.30;;;26.00;74.80;;;;;;5017153;28;20467;-68
2023/07/09 07:34:21;;;;;;;6.60;5.90;;;26.10;75.40;;;;;;5043249;28;20456;-66
2023/07/09 07:36:51;;;;;;;6.60;6.00;;;26.20;73.70;;;;;;5034818;28;20441;-69
2023/07/09 07:39:20;;;;;;;6.80;6.10;;;26.40;73.00;;;;;;5029526;28;20892;-69
2023/07/09 07:41:50;;;;;;;6.87;6.20;;;26.60;73.60;;;;;;5029347;28;20853;-68
2023/07/09 07:44:18;;;;;;;7.63;6.87;;;26.70;70.50;;;;;;5028611;28;20461;-69
2023/07/09 07:46:46;;;;;;;8.13;6.27;;;26.90;68.20;;;;;;5029211;28;20827;-67
2023/07/09 07:49:15;;;;;;;6.80;6.10;;;26.90;68.00;;;;;;5029168;28;20477;-68
2023/07/09 07:51:44;;;;;;;7.40;5.77;;;27.10;68.80;;;;;;5030236;28;20445;-69
2023/07/09 07:54:12;;;;;;;7.00;6.40;;;27.10;69.40;;;;;;5032592;28;20438;-67
2023/07/09 07:56:42;;;;;;;7.33;5.60;;;27.30;68.60;;;;;;5032683;28;20502;-68
2023/07/09 07:59:10;;;;;;;6.70;6.07;;;27.40;67.70;;;;;;5032689;28;20472;-67
2023/07/09 08:01:39;;;;;;;8.87;6.30;;;27.50;65.70;;;;;;5032730;28;20796;-67
2023/07/09 08:04:07;;;;;;;6.67;5.60;;;27.70;63.10;;;;;;5032165;28;21061;-71
2023/07/09 08:06:35;;;;;;;6.40;5.43;;;27.80;62.00;;;;;;5032672;28;20459;-69
2023/07/09 08:09:03;;;;;;;6.30;5.47;;;27.90;62.60;;;;;;5015384;28;20523;-71
2023/07/09 08:11:32;;;;;;;6.23;5.63;;;28.10;61.70;;;;;;5012705;28;20481;-70
2023/07/09 08:14:01;;;;;;;6.00;5.50;;;28.20;63.30;;;;;;5012391;28;20445;-68
2023/07/09 08:16:30;;;;;;;7.03;6.40;;;28.50;58.90;;;;;;5012541;28;20465;-70
2023/07/09 08:18:58;;;;;;;6.13;5.50;;;28.50;59.50;;;;;;5012766;28;20484;-69
2023/07/09 08:21:26;;;;;;;6.00;5.43;;;28.60;58.80;;;;;;5012219;28;20532;-69
2023/07/09 08:23:54;;;;;;;7.43;5.80;;;28.70;58.90;;;;;;5028481;28;20452;-70
2023/07/09 08:26:23;;;;;;;7.77;5.73;;;28.80;59.00;;;;;;5028890;28;20473;-70
2023/07/09 08:28:52;;;;;;;7.10;5.63;;;29.10;57.60;;;;;;5032333;28;20437;-68
2023/07/09 08:31:21;;;;;;;6.93;6.00;;;29.30;56.80;;;;;;5031723;28;20476;-66
2023/07/09 08:33:49;;;;;;;5.93;5.23;;;29.40;57.30;;;;;;5030110;28;20456;-69
2023/07/09 08:36:17;;;;;;;5.70;5.13;;;29.50;56.20;;;;;;5031384;28;20464;-68
2023/07/09 08:38:45;;;;;;;6.53;5.30;;;29.70;56.70;;;;;;5031753;28;20551;-69
2023/07/09 08:41:26;;;;;;;5.30;4.90;;;29.70;55.50;;;;;;5031192;28;20453;-70
2023/07/09 08:44:04;;;;;;;6.37;5.80;;;29.90;53.80;;;;;;5029831;28;20479;-69
2023/07/09 08:46:44;;;;;;;8.03;4.87;;;29.90;54.90;;;;;;5027215;28;20963;-69
2023/07/09 08:49:19;;;;;;;6.07;4.90;;;30.10;53.90;;;;;;5031755;28;20540;-69
2023/07/09 08:51:48;;;;;;;6.23;5.70;;;30.40;54.20;;;;;;5017677;28;20450;-70
2023/07/09 08:54:23;;;;;;;7.03;5.70;;;30.60;52.60;;;;;;5011038;28;20438;-68
2023/07/09 08:56:53;;;;;;;5.80;4.90;;;30.70;52.10;;;;;;5027392;28;20444;-68
2023/07/09 08:59:22;;;;;;;5.83;4.73;;;30.90;52.00;;;;;;5031953;28;20562;-68
2023/07/09 09:01:57;;;;;;;7.93;6.17;;;31.00;51.60;;;;;;5030971;28;20866;-69
2023/07/09 09:04:28;;;;;;;5.67;5.20;;;31.10;52.10;;;;;;5025157;28;20449;-69
2023/07/09 09:07:05;;;;;;;6.20;5.00;;;31.10;51.00;;;;;;5029397;28;20453;-65
2023/07/09 09:09:38;;;;;;;6.07;5.40;;;31.20;49.70;;;;;;5030213;28;20515;-67
2023/07/09 09:12:15;;;;;;;5.97;5.47;;;31.20;50.40;;;;;;5027070;28;20515;-70
2023/07/09 09:14:44;;;;;;;7.03;5.60;;;31.40;50.00;;;;;;5030175;28;20453;-67
2023/07/09 09:17:17;;;;;;;5.67;4.90;;;31.60;51.20;;;;;;5027394;28;20437;-69
2023/07/09 09:19:49;;;;;;;5.67;4.80;;;31.90;48.70;;;;;;5025413;28;20484;-68
2023/07/09 09:22:22;;;;;;;5.50;5.10;;;32.10;47.70;;;;;;5027247;28;20452;-70
2023/07/09 09:24:59;;;;;;;6.20;4.93;;;32.30;48.30;;;;;;5022808;28;20892;-70
2023/07/09 09:27:27;;;;;;;5.50;4.47;;;32.40;48.20;;;;;;5025918;28;21006;-68
2023/07/09 09:29:55;;;;;;;9.97;5.03;;;32.60;46.90;;;;;;5027219;28;20474;-68
2023/07/09 09:32:27;;;;;;;5.53;4.70;;;32.60;48.50;;;;;;5019385;28;20504;-69
2023/07/09 09:34:56;;;;;;;6.00;5.27;;;32.70;45.70;;;;;;5024743;28;20480;-69
2023/07/09 09:37:30;;;;;;;5.43;4.80;;;32.80;44.60;;;;;;5024318;28;20445;-70
2023/07/09 09:40:00;;;;;;;5.43;4.50;;;32.90;44.40;;;;;;5023891;28;21245;-68
2023/07/09 09:42:32;;;;;;;5.30;4.80;;;33.10;44.20;;;;;;5020379;28;20481;-69
2023/07/09 09:45:02;;;;;;;7.20;4.70;;;33.30;43.80;;;;;;5022319;28;20553;-68
2023/07/09 09:47:32;;;;;;;7.63;4.40;;;33.50;42.70;;;;;;5017731;28;20550;-68
2023/07/09 09:50:00;;;;;;;6.63;4.30;;;33.70;40.40;;;;;;5020423;28;20445;-70
2023/07/09 09:52:32;;;;;;;5.40;4.53;;;33.30;40.80;;;;;;5019086;28;20503;-71
2023/07/09 09:55:10;;;;;;;7.93;5.10;;;33.30;40.10;;;;;;5021891;28;20468;-69
2023/07/09 09:57:38;;;;;;;5.73;5.07;;;33.50;41.10;;;;;;5017063;28;20449;-68
2023/07/09 10:00:15;;;;;;;5.23;4.73;;;33.60;41.30;;;;;;5022255;28;20559;-68
2023/07/09 10:02:46;;;;;;;4.70;4.30;;;33.80;41.70;;;;;;5021878;28;20452;-69
2023/07/09 10:05:15;;;;;;;8.23;4.70;;;34.30;40.40;;;;;;5022734;28;20468;-69
2023/07/09 10:07:48;;;;;;;6.97;5.10;;;34.90;39.90;;;;;;5021762;28;20973;-69
2023/07/09 10:10:23;;;;;;;6.43;4.40;;;35.30;38.90;;;;;;5023554;28;20495;-71
2023/07/09 10:12:54;;;;;;;4.30;3.90;;;36.00;37.50;;;;;;5023490;28;20429;-68
2023/07/09 10:15:34;;;;;;;4.47;3.97;;;36.60;36.50;;;;;;5020522;28;21044;-70
2023/07/09 10:18:14;;;;;;;6.07;3.83;;;37.20;34.90;;;;;;5020101;28;20456;-70
2023/07/09 10:20:48;;;;;;;3.57;3.27;;;37.90;30.50;;;;;;5023199;28;20570;-69
2023/07/09 10:23:23;;;;;;;4.77;4.10;;;37.70;31.50;;;;;;5021915;28;20440;-68
2023/07/09 10:25:56;;;;;;;4.30;3.87;;;38.20;31.90;;;;;;5023167;28;21010;-67
2023/07/09 10:28:55;;;;;;;4.90;4.47;;;38.80;31.30;;;;;;5023013;28;20448;-70
2023/07/09 10:31:31;;;;;;;4.00;3.60;;;38.70;33.00;;;;;;5020878;28;20467;-72
2023/07/09 10:34:12;;;;;;;4.30;3.90;;;38.80;29.80;;;;;;5021939;28;20522;-71
2023/07/09 10:37:01;;;;;;;4.50;4.00;;;39.20;31.00;;;;;;5023092;28;20255;-71
2023/07/09 10:39:34;;;;;;;4.50;4.10;;;39.30;29.30;;;;;;5020536;28;20220;-72
2023/07/09 10:42:04;;;;;;;4.70;4.20;;;39.90;28.80;;;;;;5022670;28;20202;-71
2023/07/09 10:44:35;;;;;;;3.97;3.57;;;40.00;29.00;;;;;;5023057;28;20659;-71
2023/07/09 10:47:08;;;;;;;4.30;3.90;;;39.90;28.60;;;;;;5024891;28;20778;-70
2023/07/09 10:49:41;;;;;;;6.50;5.13;;;39.60;27.90;;;;;;5019253;28;20201;-71
2023/07/09 10:52:15;;;;;;;4.57;3.73;;;39.60;27.70;;;;;;5020543;28;20506;-70
2023/07/09 10:55:01;;;;;;;4.87;4.30;;;39.80;28.10;;;;;;5022628;28;20979;-72
2023/07/09 10:57:31;;;;;;;4.47;4.17;;;39.80;28.00;;;;;;5023313;28;20452;-70
2023/07/09 11:00:00;;;;;;;7.17;3.70;;;39.80;29.40;;;;;;5019335;28;20563;-72
2023/07/09 11:02:31;;;;;;;3.57;3.27;;;40.00;28.70;;;;;;5020313;28;20676;-71
2023/07/09 11:05:03;;;;;;;4.57;4.07;;;39.80;27.00;;;;;;5022134;28;20464;-72
2023/07/09 11:07:34;;;;;;;5.10;4.60;;;39.70;28.00;;;;;;5022387;28;20455;-69
2023/07/09 11:10:08;;;;;;;7.30;3.77;;;40.10;27.00;;;;;;5025278;28;20201;-69
2023/07/09 11:12:41;;;;;;;5.77;3.90;;;40.60;26.30;;;;;;5024093;28;20865;-69
2023/07/09 11:15:14;;;;;;;3.77;3.47;;;40.60;26.20;;;;;;5023959;28;20461;-69
2023/07/09 11:17:48;;;;;;;4.17;3.80;;;40.80;27.10;;;;;;5023696;28;20201;-69
2023/07/09 11:20:24;;;;;;;4.40;3.60;;;40.80;27.60;;;;;;5023463;28;20522;-70
2023/07/09 11:22:54;;;;;;;5.37;4.13;;;41.00;26.70;;;;;;5023146;28;20721;-70
2023/07/09 11:25:41;;;;;;;4.13;3.80;;;41.50;25.80;;;;;;5027266;28;20256;-69
2023/07/09 11:28:10;;;;;;;4.00;3.70;;;41.70;25.90;;;;;;5028779;28;20259;-69
2023/07/09 11:30:48;;;;;;;4.57;3.97;;;41.70;26.00;;;;;;5028415;28;20229;-70
2023/07/09 11:33:19;;;;;;;5.03;4.57;;;41.50;26.60;;;;;;5027181;28;20210;-71
2023/07/09 11:35:55;;;;;;;5.60;4.00;;;41.50;25.80;;;;;;5028467;28;20219;-70
2023/07/09 11:38:25;;;;;;;4.90;4.50;;;41.80;26.20;;;;;;5028594;28;20205;-70
2023/07/09 11:40:55;;;;;;;5.63;4.10;;;42.10;24.90;;;;;;5029226;28;20253;-70
2023/07/09 11:43:29;;;;;;;4.70;4.30;;;42.60;23.50;;;;;;5028621;28;20788;-70
2023/07/09 11:46:05;;;;;;;4.10;3.70;;;42.40;23.30;;;;;;5029344;28;21022;-70
2023/07/09 11:48:35;;;;;;;6.20;4.00;;;42.40;23.80;;;;;;5025680;28;20287;-70
2023/07/09 11:51:13;;;;;;;4.43;4.00;;;42.50;24.20;;;;;;5027269;28;20189;-70
2023/07/09 11:53:45;;;;;;;4.87;4.47;;;42.70;25.20;;;;;;5026675;28;20260;-71
2023/07/09 11:56:13;;;;;;;6.50;4.13;;;42.50;24.20;;;;;;5027447;28;20217;-71
2023/07/09 11:58:50;;;;;;;5.10;3.97;;;42.10;23.70;;;;;;5028736;28;20285;-70
2023/07/09 12:01:21;;;;;;;5.73;4.27;;;41.70;23.80;;;;;;5027067;28;20491;-71
2023/07/09 12:03:50;;;;;;;4.57;4.17;;;41.30;25.60;;;;;;5029964;28;21056;-71
2023/07/09 12:06:24;;;;;;;6.77;4.10;;;41.80;25.60;;;;;;5027388;28;20460;-71
2023/07/09 12:08:53;;;;;;;6.10;5.07;;;42.50;24.70;;;;;;5029087;28;20197;-68
2023/07/09 12:11:24;;;;;;;5.57;4.60;;;43.20;22.90;;;;;;5027618;28;20232;-68
2023/07/09 12:13:53;;;;;;;6.10;4.67;;;43.40;23.40;;;;;;5027760;28;20193;-69
2023/07/09 12:16:26;;;;;;;5.53;4.10;;;43.50;23.40;;;;;;5027738;28;20214;-69
2023/07/09 12:18:54;;;;;;;6.17;4.27;;;44.20;23.30;;;;;;5024872;28;20200;-70
2023/07/09 12:21:25;;;;;;;6.30;4.80;;;43.60;21.70;;;;;;5028101;28;20209;-69
2023/07/09 12:23:55;;;;;;;5.83;4.70;;;43.10;22.20;;;;;;5026460;28;20212;-69
2023/07/09 12:26:23;;;;;;;6.77;4.83;;;42.00;22.90;;;;;;5027373;28;20472;-70
2023/07/09 12:28:53;;;;;;;5.80;4.80;;;41.30;24.20;;;;;;5026033;28;20503;-69
2023/07/09 12:31:27;;;;;;;6.00;4.47;;;41.50;23.00;;;;;;5027699;28;20502;-69
2023/07/09 12:33:57;;;;;;;8.00;4.80;;;41.50;24.20;;;;;;5026621;28;20437;-70
2023/07/09 12:36:28;;;;;;;4.80;4.40;;;42.00;23.60;;;;;;5027574;28;20448;-70
2023/07/09 12:39:02;;;;;;;5.83;4.60;;;42.50;23.10;;;;;;5028321;28;20444;-70
2023/07/09 12:41:36;;;;;;;7.03;4.67;;;43.30;23.00;;;;;;5027402;28;20499;-70
2023/07/09 12:44:05;;;;;;;7.40;4.53;;;43.70;23.30;;;;;;5027453;28;20457;-71
2023/07/09 12:46:33;;;;;;;5.83;4.70;;;43.50;21.40;;;;;;5027800;28;20209;-71
2023/07/09 12:49:02;;;;;;;7.97;4.83;;;42.10;21.70;;;;;;5027618;28;20958;-70
2023/07/09 12:51:31;;;;;;;5.90;5.27;;;41.80;22.50;;;;;;5026411;28;20486;-70
2023/07/09 12:54:11;;;;;;;7.97;5.63;;;42.00;22.00;;;;;;5027644;28;20448;-71
2023/07/09 12:56:38;;;;;;;6.00;4.37;;;42.30;22.10;;;;;;5027933;28;20467;-71
2023/07/09 12:59:18;;;;;;;7.47;4.23;;;42.70;23.70;;;;;;5027212;28;20532;-70
2023/07/09 13:01:51;;;;;;;16.50;5.30;;;43.20;21.90;;;;;;5027531;28;20486;-72
2023/07/09 13:04:20;;;;;;;4.83;4.43;;;44.30;22.00;;;;;;5027416;28;20212;-72